sensor_id;sensor_type;location;lat;lon;timestamp;P1;durP1;ratioP1;P2;durP2;ratioP2
80409;SDS011;69746;45.596;10.154;2023-12-04T00:02:16;4.32;;;1.63;;
80409;SDS011;69746;45.596;10.154;2023-12-04T00:04:42;3.67;;;1.38;;
80409;SDS011;69746;45.596;10.154;2023-12-04T00:07:08;4.40;;;1.60;;
80409;SDS011;69746;45.596;10.154;2023-12-04T00:09:34;4.78;;;2.08;;
80409;SDS011;69746;45.596;10.154;2023-12-04T00:12:00;3.72;;;1.85;;
80409;SDS011;69746;45.596;10.154;2023-12-04T00:14:25;4.43;;;1.83;;
80409;SDS011;69746;45.596;10.154;2023-12-04T00:16:54;3.28;;;1.98;;
80409;SDS011;69746;45.596;10.154;2023-12-04T00:19:20;5.10;;;1.77;;
80409;SDS011;69746;45.596;10.154;2023-12-04T00:21:46;2.83;;;1.65;;
80409;SDS011;69746;45.596;10.154;2023-12-04T00:24:12;2.97;;;1.70;;
80409;SDS011;69746;45.596;10.154;2023-12-04T00:26:38;4.93;;;1.67;;
80409;SDS011;69746;45.596;10.154;2023-12-04T00:29:04;3.50;;;1.50;;
80409;SDS011;69746;45.596;10.154;2023-12-04T00:31:30;3.78;;;1.50;;
80409;SDS011;69746;45.596;10.154;2023-12-04T00:33:57;4.97;;;2.08;;
80409;SDS011;69746;45.596;10.154;2023-12-04T00:36:22;3.92;;;1.60;;
80409;SDS011;69746;45.596;10.154;2023-12-04T00:38:48;5.00;;;2.00;;
80409;SDS011;69746;45.596;10.154;2023-12-04T00:41:14;5.85;;;2.00;;
80409;SDS011;69746;45.596;10.154;2023-12-04T00:43:40;4.07;;;1.30;;
80409;SDS011;69746;45.596;10.154;2023-12-04T00:46:06;4.10;;;1.85;;
80409;SDS011;69746;45.596;10.154;2023-12-04T00:48:32;4.07;;;1.83;;
80409;SDS011;69746;45.596;10.154;2023-12-04T00:50:59;3.38;;;1.50;;
80409;SDS011;69746;45.596;10.154;2023-12-04T00:53:24;2.40;;;1.60;;
80409;SDS011;69746;45.596;10.154;2023-12-04T00:55:50;2.83;;;1.45;;
80409;SDS011;69746;45.596;10.154;2023-12-04T00:58:16;3.25;;;1.48;;
80409;SDS011;69746;45.596;10.154;2023-12-04T01:00:42;4.63;;;1.75;;
80409;SDS011;69746;45.596;10.154;2023-12-04T01:03:08;3.20;;;1.60;;
80409;SDS011;69746;45.596;10.154;2023-12-04T01:05:34;3.53;;;1.63;;
80409;SDS011;69746;45.596;10.154;2023-12-04T01:07:59;3.95;;;1.70;;
80409;SDS011;69746;45.596;10.154;2023-12-04T01:10:28;3.45;;;1.48;;
80409;SDS011;69746;45.596;10.154;2023-12-04T01:12:54;3.67;;;1.80;;
80409;SDS011;69746;45.596;10.154;2023-12-04T01:15:20;3.10;;;1.73;;
80409;SDS011;69746;45.596;10.154;2023-12-04T01:17:46;2.92;;;1.42;;
80409;SDS011;69746;45.596;10.154;2023-12-04T01:20:13;3.83;;;1.70;;
80409;SDS011;69746;45.596;10.154;2023-12-04T01:22:39;3.30;;;1.80;;
80409;SDS011;69746;45.596;10.154;2023-12-04T01:25:05;3.10;;;1.50;;
80409;SDS011;69746;45.596;10.154;2023-12-04T01:27:31;3.15;;;1.60;;
80409;SDS011;69746;45.596;10.154;2023-12-04T01:29:57;3.78;;;1.40;;
80409;SDS011;69746;45.596;10.154;2023-12-04T01:32:23;2.88;;;1.75;;
80409;SDS011;69746;45.596;10.154;2023-12-04T01:34:48;4.80;;;1.75;;
80409;SDS011;69746;45.596;10.154;2023-12-04T01:37:14;3.50;;;1.45;;
80409;SDS011;69746;45.596;10.154;2023-12-04T01:39:40;3.00;;;1.50;;
80409;SDS011;69746;45.596;10.154;2023-12-04T01:42:06;4.20;;;1.80;;
80409;SDS011;69746;45.596;10.154;2023-12-04T01:44:34;2.95;;;1.58;;
80409;SDS011;69746;45.596;10.154;2023-12-04T01:47:01;3.55;;;1.55;;
80409;SDS011;69746;45.596;10.154;2023-12-04T01:49:28;3.28;;;1.60;;
80409;SDS011;69746;45.596;10.154;2023-12-04T01:51:55;3.30;;;1.60;;
80409;SDS011;69746;45.596;10.154;2023-12-04T01:54:22;2.50;;;1.52;;
80409;SDS011;69746;45.596;10.154;2023-12-04T01:56:48;3.30;;;1.50;;
80409;SDS011;69746;45.596;10.154;2023-12-04T01:59:14;3.38;;;1.58;;
80409;SDS011;69746;45.596;10.154;2023-12-04T02:01:41;2.72;;;1.30;;
80409;SDS011;69746;45.596;10.154;2023-12-04T02:04:07;3.67;;;1.60;;
80409;SDS011;69746;45.596;10.154;2023-12-04T02:06:34;3.85;;;1.75;;
80409;SDS011;69746;45.596;10.154;2023-12-04T02:09:00;3.03;;;1.75;;
80409;SDS011;69746;45.596;10.154;2023-12-04T02:11:28;2.47;;;1.20;;
80409;SDS011;69746;45.596;10.154;2023-12-04T02:13:54;3.70;;;1.50;;
80409;SDS011;69746;45.596;10.154;2023-12-04T02:16:20;2.80;;;1.20;;
80409;SDS011;69746;45.596;10.154;2023-12-04T02:21:20;2.40;;;1.55;;
80409;SDS011;69746;45.596;10.154;2023-12-04T02:23:48;2.55;;;1.60;;
80409;SDS011;69746;45.596;10.154;2023-12-04T02:26:16;4.10;;;1.67;;
80409;SDS011;69746;45.596;10.154;2023-12-04T02:28:49;2.80;;;1.23;;
80409;SDS011;69746;45.596;10.154;2023-12-04T02:31:21;2.50;;;1.40;;
80409;SDS011;69746;45.596;10.154;2023-12-04T02:33:50;3.20;;;1.65;;
80409;SDS011;69746;45.596;10.154;2023-12-04T02:36:17;2.72;;;1.60;;
80409;SDS011;69746;45.596;10.154;2023-12-04T02:38:46;3.47;;;1.52;;
80409;SDS011;69746;45.596;10.154;2023-12-04T02:41:12;2.65;;;1.58;;
80409;SDS011;69746;45.596;10.154;2023-12-04T02:43:41;2.65;;;1.40;;
80409;SDS011;69746;45.596;10.154;2023-12-04T02:46:07;2.83;;;1.55;;
80409;SDS011;69746;45.596;10.154;2023-12-04T02:48:33;3.08;;;1.40;;
80409;SDS011;69746;45.596;10.154;2023-12-04T02:50:59;2.58;;;1.50;;
80409;SDS011;69746;45.596;10.154;2023-12-04T02:53:25;2.60;;;1.50;;
80409;SDS011;69746;45.596;10.154;2023-12-04T02:55:51;2.55;;;1.45;;
80409;SDS011;69746;45.596;10.154;2023-12-04T02:58:17;2.33;;;1.40;;
80409;SDS011;69746;45.596;10.154;2023-12-04T03:00:43;2.70;;;1.52;;
80409;SDS011;69746;45.596;10.154;2023-12-04T03:03:09;2.58;;;1.50;;
80409;SDS011;69746;45.596;10.154;2023-12-04T03:05:36;3.30;;;1.65;;
80409;SDS011;69746;45.596;10.154;2023-12-04T03:08:02;5.03;;;2.25;;
80409;SDS011;69746;45.596;10.154;2023-12-04T03:10:28;2.97;;;1.52;;
80409;SDS011;69746;45.596;10.154;2023-12-04T03:12:54;3.38;;;1.45;;
80409;SDS011;69746;45.596;10.154;2023-12-04T03:15:20;3.20;;;1.58;;
80409;SDS011;69746;45.596;10.154;2023-12-04T03:17:49;3.00;;;1.60;;
80409;SDS011;69746;45.596;10.154;2023-12-04T03:20:14;3.75;;;1.60;;
80409;SDS011;69746;45.596;10.154;2023-12-04T03:22:40;3.05;;;1.83;;
80409;SDS011;69746;45.596;10.154;2023-12-04T03:25:06;2.45;;;1.48;;
80409;SDS011;69746;45.596;10.154;2023-12-04T03:27:33;2.25;;;1.23;;
80409;SDS011;69746;45.596;10.154;2023-12-04T03:29:59;2.60;;;1.20;;
80409;SDS011;69746;45.596;10.154;2023-12-04T03:32:25;2.58;;;1.30;;
80409;SDS011;69746;45.596;10.154;2023-12-04T03:34:51;2.75;;;1.70;;
80409;SDS011;69746;45.596;10.154;2023-12-04T03:37:17;2.75;;;1.40;;
80409;SDS011;69746;45.596;10.154;2023-12-04T03:39:43;2.05;;;1.40;;
80409;SDS011;69746;45.596;10.154;2023-12-04T03:42:08;2.88;;;1.40;;
80409;SDS011;69746;45.596;10.154;2023-12-04T03:44:34;2.35;;;1.40;;
80409;SDS011;69746;45.596;10.154;2023-12-04T03:47:03;2.67;;;1.40;;
80409;SDS011;69746;45.596;10.154;2023-12-04T03:49:29;2.15;;;1.30;;
80409;SDS011;69746;45.596;10.154;2023-12-04T03:51:55;2.75;;;1.23;;
80409;SDS011;69746;45.596;10.154;2023-12-04T03:54:21;2.58;;;1.40;;
80409;SDS011;69746;45.596;10.154;2023-12-04T03:56:47;1.83;;;1.30;;
80409;SDS011;69746;45.596;10.154;2023-12-04T03:59:13;2.38;;;1.48;;
80409;SDS011;69746;45.596;10.154;2023-12-04T04:01:39;2.40;;;1.60;;
80409;SDS011;69746;45.596;10.154;2023-12-04T04:04:08;4.00;;;1.30;;
80409;SDS011;69746;45.596;10.154;2023-12-04T04:06:34;2.70;;;1.40;;
80409;SDS011;69746;45.596;10.154;2023-12-04T04:09:00;2.22;;;1.60;;
80409;SDS011;69746;45.596;10.154;2023-12-04T04:11:26;2.55;;;1.40;;
80409;SDS011;69746;45.596;10.154;2023-12-04T04:13:52;2.88;;;1.38;;
80409;SDS011;69746;45.596;10.154;2023-12-04T04:16:17;2.50;;;1.42;;
80409;SDS011;69746;45.596;10.154;2023-12-04T04:18:43;2.72;;;1.83;;
80409;SDS011;69746;45.596;10.154;2023-12-04T04:21:09;2.30;;;1.05;;
80409;SDS011;69746;45.596;10.154;2023-12-04T04:23:35;3.83;;;2.03;;
80409;SDS011;69746;45.596;10.154;2023-12-04T04:26:01;2.50;;;1.40;;
80409;SDS011;69746;45.596;10.154;2023-12-04T04:28:30;2.22;;;1.40;;
80409;SDS011;69746;45.596;10.154;2023-12-04T04:30:56;2.95;;;1.40;;
80409;SDS011;69746;45.596;10.154;2023-12-04T04:33:22;2.08;;;1.13;;
80409;SDS011;69746;45.596;10.154;2023-12-04T04:35:49;2.08;;;1.42;;
80409;SDS011;69746;45.596;10.154;2023-12-04T04:38:15;1.77;;;1.30;;
80409;SDS011;69746;45.596;10.154;2023-12-04T04:40:44;1.90;;;1.45;;
80409;SDS011;69746;45.596;10.154;2023-12-04T04:43:10;2.15;;;1.40;;
80409;SDS011;69746;45.596;10.154;2023-12-04T04:45:37;2.70;;;1.15;;
80409;SDS011;69746;45.596;10.154;2023-12-04T04:48:03;1.98;;;1.38;;
80409;SDS011;69746;45.596;10.154;2023-12-04T04:50:32;1.75;;;1.30;;
80409;SDS011;69746;45.596;10.154;2023-12-04T04:52:58;2.25;;;1.20;;
80409;SDS011;69746;45.596;10.154;2023-12-04T04:55:23;2.13;;;1.15;;
80409;SDS011;69746;45.596;10.154;2023-12-04T04:57:49;2.97;;;1.30;;
80409;SDS011;69746;45.596;10.154;2023-12-04T05:00:17;2.83;;;1.33;;
80409;SDS011;69746;45.596;10.154;2023-12-04T05:02:43;2.58;;;1.50;;
80409;SDS011;69746;45.596;10.154;2023-12-04T05:05:11;1.75;;;1.20;;
80409;SDS011;69746;45.596;10.154;2023-12-04T05:07:37;2.00;;;1.40;;
80409;SDS011;69746;45.596;10.154;2023-12-04T05:10:03;2.63;;;1.35;;
80409;SDS011;69746;45.596;10.154;2023-12-04T05:12:30;2.88;;;1.30;;
80409;SDS011;69746;45.596;10.154;2023-12-04T05:14:56;2.97;;;1.10;;
80409;SDS011;69746;45.596;10.154;2023-12-04T05:17:21;2.47;;;1.42;;
80409;SDS011;69746;45.596;10.154;2023-12-04T05:19:47;2.20;;;1.50;;
80409;SDS011;69746;45.596;10.154;2023-12-04T05:22:13;2.50;;;1.40;;
80409;SDS011;69746;45.596;10.154;2023-12-04T05:24:39;2.58;;;1.35;;
80409;SDS011;69746;45.596;10.154;2023-12-04T05:27:05;2.45;;;1.60;;
80409;SDS011;69746;45.596;10.154;2023-12-04T05:29:30;2.50;;;1.40;;
80409;SDS011;69746;45.596;10.154;2023-12-04T05:31:56;1.85;;;1.20;;
80409;SDS011;69746;45.596;10.154;2023-12-04T05:34:23;2.67;;;1.20;;
80409;SDS011;69746;45.596;10.154;2023-12-04T05:36:49;2.25;;;1.27;;
80409;SDS011;69746;45.596;10.154;2023-12-04T05:39:15;2.33;;;1.40;;
80409;SDS011;69746;45.596;10.154;2023-12-04T05:41:41;3.00;;;1.42;;
80409;SDS011;69746;45.596;10.154;2023-12-04T05:44:10;1.90;;;1.27;;
80409;SDS011;69746;45.596;10.154;2023-12-04T05:46:39;12.40;;;2.00;;
80409;SDS011;69746;45.596;10.154;2023-12-04T05:49:05;12.70;;;1.88;;
80409;SDS011;69746;45.596;10.154;2023-12-04T05:51:31;7.65;;;1.95;;
80409;SDS011;69746;45.596;10.154;2023-12-04T05:53:57;7.90;;;1.70;;
80409;SDS011;69746;45.596;10.154;2023-12-04T05:56:26;7.97;;;2.20;;
80409;SDS011;69746;45.596;10.154;2023-12-04T06:01:17;18.85;;;1.90;;
80409;SDS011;69746;45.596;10.154;2023-12-04T06:03:44;8.95;;;1.85;;
80409;SDS011;69746;45.596;10.154;2023-12-04T06:06:11;8.13;;;2.03;;
80409;SDS011;69746;45.596;10.154;2023-12-04T06:08:37;8.75;;;1.60;;
80409;SDS011;69746;45.596;10.154;2023-12-04T06:11:03;11.68;;;1.73;;
80409;SDS011;69746;45.596;10.154;2023-12-04T06:13:29;6.40;;;1.65;;
80409;SDS011;69746;45.596;10.154;2023-12-04T06:15:55;9.07;;;1.98;;
80409;SDS011;69746;45.596;10.154;2023-12-04T06:18:22;8.18;;;1.70;;
80409;SDS011;69746;45.596;10.154;2023-12-04T06:20:47;9.93;;;1.80;;
80409;SDS011;69746;45.596;10.154;2023-12-04T06:23:14;5.80;;;1.50;;
80409;SDS011;69746;45.596;10.154;2023-12-04T06:25:41;8.90;;;1.90;;
80409;SDS011;69746;45.596;10.154;2023-12-04T06:28:07;10.98;;;1.95;;
80409;SDS011;69746;45.596;10.154;2023-12-04T06:30:34;6.15;;;1.70;;
80409;SDS011;69746;45.596;10.154;2023-12-04T06:33:02;9.32;;;1.80;;
80409;SDS011;69746;45.596;10.154;2023-12-04T06:35:29;8.40;;;1.63;;
80409;SDS011;69746;45.596;10.154;2023-12-04T06:37:56;7.10;;;1.83;;
80409;SDS011;69746;45.596;10.154;2023-12-04T06:40:28;7.75;;;1.80;;
80409;SDS011;69746;45.596;10.154;2023-12-04T06:42:54;8.05;;;1.58;;
80409;SDS011;69746;45.596;10.154;2023-12-04T06:45:21;6.35;;;1.40;;
80409;SDS011;69746;45.596;10.154;2023-12-04T06:47:47;4.80;;;1.58;;
80409;SDS011;69746;45.596;10.154;2023-12-04T06:50:15;5.97;;;1.60;;
80409;SDS011;69746;45.596;10.154;2023-12-04T06:52:42;5.53;;;1.50;;
80409;SDS011;69746;45.596;10.154;2023-12-04T06:55:08;4.80;;;1.65;;
80409;SDS011;69746;45.596;10.154;2023-12-04T06:57:34;5.07;;;1.20;;
80409;SDS011;69746;45.596;10.154;2023-12-04T07:00:00;4.57;;;1.50;;
80409;SDS011;69746;45.596;10.154;2023-12-04T07:02:27;5.53;;;1.85;;
80409;SDS011;69746;45.596;10.154;2023-12-04T07:04:53;5.18;;;1.67;;
80409;SDS011;69746;45.596;10.154;2023-12-04T07:07:19;5.45;;;1.50;;
80409;SDS011;69746;45.596;10.154;2023-12-04T07:09:45;5.90;;;1.60;;
80409;SDS011;69746;45.596;10.154;2023-12-04T07:12:14;6.32;;;1.30;;
80409;SDS011;69746;45.596;10.154;2023-12-04T07:14:42;9.38;;;1.70;;
80409;SDS011;69746;45.596;10.154;2023-12-04T07:17:08;4.68;;;1.50;;
80409;SDS011;69746;45.596;10.154;2023-12-04T07:19:37;5.20;;;1.50;;
80409;SDS011;69746;45.596;10.154;2023-12-04T07:22:06;6.72;;;1.83;;
80409;SDS011;69746;45.596;10.154;2023-12-04T07:24:32;6.85;;;1.73;;
80409;SDS011;69746;45.596;10.154;2023-12-04T07:26:58;9.02;;;1.70;;
80409;SDS011;69746;45.596;10.154;2023-12-04T07:29:24;5.25;;;1.70;;
80409;SDS011;69746;45.596;10.154;2023-12-04T07:31:50;6.47;;;1.60;;
80409;SDS011;69746;45.596;10.154;2023-12-04T07:34:17;3.53;;;1.50;;
80409;SDS011;69746;45.596;10.154;2023-12-04T07:36:44;5.28;;;1.50;;
80409;SDS011;69746;45.596;10.154;2023-12-04T07:39:10;2.92;;;1.30;;
80409;SDS011;69746;45.596;10.154;2023-12-04T07:41:36;5.82;;;1.67;;
80409;SDS011;69746;45.596;10.154;2023-12-04T07:44:02;2.05;;;1.25;;
80409;SDS011;69746;45.596;10.154;2023-12-04T07:46:29;2.92;;;1.38;;
80409;SDS011;69746;45.596;10.154;2023-12-04T07:48:58;4.90;;;1.30;;
80409;SDS011;69746;45.596;10.154;2023-12-04T07:51:26;5.00;;;1.50;;
80409;SDS011;69746;45.596;10.154;2023-12-04T07:53:52;2.88;;;1.20;;
80409;SDS011;69746;45.596;10.154;2023-12-04T07:56:18;3.88;;;1.30;;
80409;SDS011;69746;45.596;10.154;2023-12-04T07:58:46;3.95;;;1.58;;
80409;SDS011;69746;45.596;10.154;2023-12-04T08:01:12;3.92;;;1.50;;
80409;SDS011;69746;45.596;10.154;2023-12-04T08:03:37;2.47;;;1.25;;
80409;SDS011;69746;45.596;10.154;2023-12-04T08:06:05;2.88;;;1.42;;
80409;SDS011;69746;45.596;10.154;2023-12-04T08:08:31;4.25;;;1.45;;
80409;SDS011;69746;45.596;10.154;2023-12-04T08:10:58;3.60;;;1.42;;
80409;SDS011;69746;45.596;10.154;2023-12-04T08:13:24;3.85;;;1.20;;
80409;SDS011;69746;45.596;10.154;2023-12-04T08:15:51;3.17;;;1.20;;
80409;SDS011;69746;45.596;10.154;2023-12-04T08:18:16;3.25;;;1.20;;
80409;SDS011;69746;45.596;10.154;2023-12-04T08:20:42;3.17;;;1.40;;
80409;SDS011;69746;45.596;10.154;2023-12-04T08:23:09;4.40;;;1.70;;
80409;SDS011;69746;45.596;10.154;2023-12-04T08:25:34;3.67;;;1.40;;
80409;SDS011;69746;45.596;10.154;2023-12-04T08:28:03;4.93;;;1.20;;
80409;SDS011;69746;45.596;10.154;2023-12-04T08:30:29;7.80;;;1.60;;
80409;SDS011;69746;45.596;10.154;2023-12-04T08:32:56;2.90;;;1.10;;
80409;SDS011;69746;45.596;10.154;2023-12-04T08:35:22;2.67;;;1.15;;
80409;SDS011;69746;45.596;10.154;2023-12-04T08:37:49;4.45;;;1.40;;
80409;SDS011;69746;45.596;10.154;2023-12-04T08:40:18;3.03;;;1.48;;
80409;SDS011;69746;45.596;10.154;2023-12-04T08:42:48;5.45;;;1.30;;
80409;SDS011;69746;45.596;10.154;2023-12-04T08:45:14;4.07;;;1.40;;
80409;SDS011;69746;45.596;10.154;2023-12-04T08:47:40;2.78;;;1.33;;
80409;SDS011;69746;45.596;10.154;2023-12-04T08:50:06;2.53;;;1.20;;
80409;SDS011;69746;45.596;10.154;2023-12-04T08:52:33;3.90;;;1.67;;
80409;SDS011;69746;45.596;10.154;2023-12-04T08:55:00;3.25;;;1.27;;
80409;SDS011;69746;45.596;10.154;2023-12-04T08:57:27;5.25;;;1.52;;
80409;SDS011;69746;45.596;10.154;2023-12-04T08:59:54;2.83;;;1.38;;
80409;SDS011;69746;45.596;10.154;2023-12-04T09:02:20;4.90;;;1.50;;
80409;SDS011;69746;45.596;10.154;2023-12-04T09:04:47;2.70;;;1.70;;
80409;SDS011;69746;45.596;10.154;2023-12-04T09:07:16;3.83;;;1.33;;
80409;SDS011;69746;45.596;10.154;2023-12-04T09:09:42;3.28;;;1.38;;
80409;SDS011;69746;45.596;10.154;2023-12-04T09:12:09;3.03;;;1.58;;
80409;SDS011;69746;45.596;10.154;2023-12-04T09:14:36;3.13;;;1.10;;
80409;SDS011;69746;45.596;10.154;2023-12-04T09:17:02;2.28;;;1.30;;
80409;SDS011;69746;45.596;10.154;2023-12-04T09:19:30;2.42;;;1.30;;
80409;SDS011;69746;45.596;10.154;2023-12-04T09:21:56;3.85;;;1.35;;
80409;SDS011;69746;45.596;10.154;2023-12-04T09:24:22;2.85;;;1.20;;
80409;SDS011;69746;45.596;10.154;2023-12-04T09:26:49;2.75;;;1.25;;
80409;SDS011;69746;45.596;10.154;2023-12-04T09:29:15;4.30;;;1.30;;
80409;SDS011;69746;45.596;10.154;2023-12-04T09:31:42;1.90;;;1.10;;
80409;SDS011;69746;45.596;10.154;2023-12-04T09:34:08;4.10;;;1.50;;
80409;SDS011;69746;45.596;10.154;2023-12-04T09:36:35;3.63;;;1.42;;
80409;SDS011;69746;45.596;10.154;2023-12-04T09:39:01;4.32;;;1.60;;
80409;SDS011;69746;45.596;10.154;2023-12-04T09:41:29;2.70;;;1.30;;
80409;SDS011;69746;45.596;10.154;2023-12-04T09:43:57;2.50;;;1.30;;
80409;SDS011;69746;45.596;10.154;2023-12-04T09:46:22;3.38;;;1.38;;
80409;SDS011;69746;45.596;10.154;2023-12-04T09:48:49;5.50;;;1.50;;
80409;SDS011;69746;45.596;10.154;2023-12-04T09:51:17;3.13;;;1.10;;
80409;SDS011;69746;45.596;10.154;2023-12-04T09:53:46;2.50;;;1.20;;
80409;SDS011;69746;45.596;10.154;2023-12-04T09:56:16;2.95;;;1.20;;
80409;SDS011;69746;45.596;10.154;2023-12-04T09:58:43;3.70;;;1.45;;
80409;SDS011;69746;45.596;10.154;2023-12-04T10:01:11;2.45;;;1.30;;
80409;SDS011;69746;45.596;10.154;2023-12-04T10:03:40;2.38;;;1.20;;
80409;SDS011;69746;45.596;10.154;2023-12-04T10:06:11;2.08;;;1.52;;
80409;SDS011;69746;45.596;10.154;2023-12-04T10:08:45;1.88;;;1.20;;
80409;SDS011;69746;45.596;10.154;2023-12-04T10:11:12;2.83;;;1.45;;
80409;SDS011;69746;45.596;10.154;2023-12-04T10:13:41;2.80;;;1.20;;
80409;SDS011;69746;45.596;10.154;2023-12-04T10:16:07;2.35;;;1.15;;
80409;SDS011;69746;45.596;10.154;2023-12-04T10:18:33;2.53;;;1.35;;
80409;SDS011;69746;45.596;10.154;2023-12-04T10:21:00;2.55;;;1.10;;
80409;SDS011;69746;45.596;10.154;2023-12-04T10:23:37;1.80;;;1.08;;
80409;SDS011;69746;45.596;10.154;2023-12-04T10:26:04;2.35;;;1.15;;
80409;SDS011;69746;45.596;10.154;2023-12-04T10:30:58;2.83;;;1.60;;
80409;SDS011;69746;45.596;10.154;2023-12-04T10:33:28;2.50;;;1.30;;
80409;SDS011;69746;45.596;10.154;2023-12-04T10:35:56;2.28;;;1.20;;
80409;SDS011;69746;45.596;10.154;2023-12-04T10:38:22;1.80;;;1.10;;
80409;SDS011;69746;45.596;10.154;2023-12-04T10:40:48;3.40;;;1.30;;
80409;SDS011;69746;45.596;10.154;2023-12-04T10:43:16;2.72;;;1.30;;
80409;SDS011;69746;45.596;10.154;2023-12-04T10:45:47;2.33;;;1.40;;
80409;SDS011;69746;45.596;10.154;2023-12-04T10:48:14;2.00;;;1.20;;
80409;SDS011;69746;45.596;10.154;2023-12-04T10:50:42;2.58;;;1.30;;
80409;SDS011;69746;45.596;10.154;2023-12-04T10:53:11;1.77;;;1.10;;
80409;SDS011;69746;45.596;10.154;2023-12-04T10:55:39;2.90;;;1.38;;
80409;SDS011;69746;45.596;10.154;2023-12-04T10:58:07;1.98;;;1.10;;
80409;SDS011;69746;45.596;10.154;2023-12-04T11:00:38;2.35;;;1.35;;
80409;SDS011;69746;45.596;10.154;2023-12-04T11:03:20;2.28;;;1.30;;
80409;SDS011;69746;45.596;10.154;2023-12-04T11:05:59;2.10;;;1.20;;
80409;SDS011;69746;45.596;10.154;2023-12-04T11:08:29;2.63;;;1.23;;
80409;SDS011;69746;45.596;10.154;2023-12-04T11:11:02;2.13;;;1.10;;
80409;SDS011;69746;45.596;10.154;2023-12-04T11:13:37;2.83;;;1.35;;
80409;SDS011;69746;45.596;10.154;2023-12-04T11:16:12;1.75;;;1.00;;
80409;SDS011;69746;45.596;10.154;2023-12-04T11:19:01;2.15;;;1.15;;
80409;SDS011;69746;45.596;10.154;2023-12-04T11:21:39;1.90;;;1.02;;
80409;SDS011;69746;45.596;10.154;2023-12-04T11:24:07;2.35;;;1.33;;
80409;SDS011;69746;45.596;10.154;2023-12-04T11:26:34;2.13;;;1.10;;
80409;SDS011;69746;45.596;10.154;2023-12-04T11:29:01;2.50;;;1.52;;
80409;SDS011;69746;45.596;10.154;2023-12-04T11:31:28;2.47;;;1.10;;
80409;SDS011;69746;45.596;10.154;2023-12-04T11:33:55;3.25;;;1.35;;
80409;SDS011;69746;45.596;10.154;2023-12-04T11:36:28;1.80;;;1.20;;
80409;SDS011;69746;45.596;10.154;2023-12-04T11:38:54;3.05;;;1.15;;
80409;SDS011;69746;45.596;10.154;2023-12-04T11:41:22;2.40;;;1.17;;
80409;SDS011;69746;45.596;10.154;2023-12-04T11:43:49;3.15;;;1.10;;
80409;SDS011;69746;45.596;10.154;2023-12-04T11:46:19;1.90;;;1.20;;
80409;SDS011;69746;45.596;10.154;2023-12-04T11:48:49;2.58;;;1.33;;
80409;SDS011;69746;45.596;10.154;2023-12-04T11:54:15;3.67;;;1.55;;
80409;SDS011;69746;45.596;10.154;2023-12-04T11:59:40;2.67;;;1.48;;
80409;SDS011;69746;45.596;10.154;2023-12-04T12:02:08;1.65;;;1.17;;
80409;SDS011;69746;45.596;10.154;2023-12-04T12:04:35;2.10;;;1.40;;
80409;SDS011;69746;45.596;10.154;2023-12-04T12:07:03;2.78;;;1.30;;
80409;SDS011;69746;45.596;10.154;2023-12-04T12:09:31;1.95;;;1.30;;
80409;SDS011;69746;45.596;10.154;2023-12-04T12:12:01;2.35;;;1.20;;
80409;SDS011;69746;45.596;10.154;2023-12-04T12:14:29;1.98;;;1.23;;
80409;SDS011;69746;45.596;10.154;2023-12-04T12:16:58;1.88;;;1.30;;
80409;SDS011;69746;45.596;10.154;2023-12-04T12:19:25;2.92;;;1.40;;
80409;SDS011;69746;45.596;10.154;2023-12-04T12:21:51;3.45;;;1.52;;
80409;SDS011;69746;45.596;10.154;2023-12-04T12:24:18;1.95;;;1.20;;
80409;SDS011;69746;45.596;10.154;2023-12-04T12:26:44;2.50;;;1.20;;
80409;SDS011;69746;45.596;10.154;2023-12-04T12:29:14;2.60;;;1.08;;
80409;SDS011;69746;45.596;10.154;2023-12-04T12:31:40;1.90;;;1.35;;
80409;SDS011;69746;45.596;10.154;2023-12-04T12:34:06;2.03;;;1.08;;
80409;SDS011;69746;45.596;10.154;2023-12-04T12:36:32;2.00;;;1.30;;
80409;SDS011;69746;45.596;10.154;2023-12-04T12:39:01;2.35;;;1.40;;
80409;SDS011;69746;45.596;10.154;2023-12-04T12:41:30;1.95;;;1.40;;
80409;SDS011;69746;45.596;10.154;2023-12-04T12:43:56;2.25;;;1.33;;
80409;SDS011;69746;45.596;10.154;2023-12-04T12:46:22;2.78;;;1.25;;
80409;SDS011;69746;45.596;10.154;2023-12-04T12:48:48;2.03;;;1.10;;
80409;SDS011;69746;45.596;10.154;2023-12-04T12:51:14;2.55;;;1.30;;
80409;SDS011;69746;45.596;10.154;2023-12-04T12:53:40;2.22;;;1.15;;
80409;SDS011;69746;45.596;10.154;2023-12-04T12:56:09;2.58;;;1.15;;
80409;SDS011;69746;45.596;10.154;2023-12-04T12:58:36;2.22;;;1.30;;
80409;SDS011;69746;45.596;10.154;2023-12-04T13:01:02;1.58;;;1.17;;
80409;SDS011;69746;45.596;10.154;2023-12-04T13:03:30;2.05;;;1.30;;
80409;SDS011;69746;45.596;10.154;2023-12-04T13:05:59;2.22;;;1.30;;
80409;SDS011;69746;45.596;10.154;2023-12-04T13:08:25;2.17;;;1.02;;
80409;SDS011;69746;45.596;10.154;2023-12-04T13:10:54;2.35;;;1.30;;
80409;SDS011;69746;45.596;10.154;2023-12-04T13:13:20;1.63;;;0.90;;
80409;SDS011;69746;45.596;10.154;2023-12-04T13:15:46;2.47;;;1.30;;
80409;SDS011;69746;45.596;10.154;2023-12-04T13:18:15;2.40;;;1.23;;
80409;SDS011;69746;45.596;10.154;2023-12-04T13:20:41;2.03;;;1.30;;
80409;SDS011;69746;45.596;10.154;2023-12-04T13:23:08;2.13;;;1.25;;
80409;SDS011;69746;45.596;10.154;2023-12-04T13:25:34;2.80;;;1.30;;
80409;SDS011;69746;45.596;10.154;2023-12-04T13:28:02;2.58;;;1.55;;
80409;SDS011;69746;45.596;10.154;2023-12-04T13:30:31;2.03;;;1.40;;
80409;SDS011;69746;45.596;10.154;2023-12-04T13:33:00;2.00;;;1.20;;
80409;SDS011;69746;45.596;10.154;2023-12-04T13:35:26;2.42;;;1.30;;
80409;SDS011;69746;45.596;10.154;2023-12-04T13:37:52;2.35;;;1.60;;
80409;SDS011;69746;45.596;10.154;2023-12-04T13:40:21;1.80;;;1.40;;
80409;SDS011;69746;45.596;10.154;2023-12-04T13:42:52;2.35;;;1.23;;
80409;SDS011;69746;45.596;10.154;2023-12-04T13:45:37;2.55;;;1.40;;
80409;SDS011;69746;45.596;10.154;2023-12-04T13:48:03;3.63;;;1.40;;
80409;SDS011;69746;45.596;10.154;2023-12-04T13:50:29;2.00;;;1.20;;
80409;SDS011;69746;45.596;10.154;2023-12-04T13:52:55;2.03;;;1.50;;
80409;SDS011;69746;45.596;10.154;2023-12-04T13:55:25;2.00;;;1.25;;
80409;SDS011;69746;45.596;10.154;2023-12-04T13:58:10;1.92;;;1.30;;
80409;SDS011;69746;45.596;10.154;2023-12-04T14:00:56;2.08;;;1.42;;
80409;SDS011;69746;45.596;10.154;2023-12-04T14:03:22;1.95;;;1.20;;
80409;SDS011;69746;45.596;10.154;2023-12-04T14:05:51;2.10;;;1.33;;
80409;SDS011;69746;45.596;10.154;2023-12-04T14:08:17;2.25;;;1.35;;
80409;SDS011;69746;45.596;10.154;2023-12-04T14:10:44;1.90;;;1.42;;
80409;SDS011;69746;45.596;10.154;2023-12-04T14:13:10;2.30;;;1.60;;
80409;SDS011;69746;45.596;10.154;2023-12-04T14:15:36;2.47;;;1.30;;
80409;SDS011;69746;45.596;10.154;2023-12-04T14:18:02;2.75;;;1.52;;
80409;SDS011;69746;45.596;10.154;2023-12-04T14:20:30;3.17;;;1.50;;
80409;SDS011;69746;45.596;10.154;2023-12-04T14:22:56;1.95;;;1.15;;
80409;SDS011;69746;45.596;10.154;2023-12-04T14:25:22;1.85;;;1.20;;
80409;SDS011;69746;45.596;10.154;2023-12-04T14:27:48;2.63;;;1.50;;
80409;SDS011;69746;45.596;10.154;2023-12-04T14:30:14;1.77;;;1.20;;
80409;SDS011;69746;45.596;10.154;2023-12-04T14:32:40;1.80;;;1.48;;
80409;SDS011;69746;45.596;10.154;2023-12-04T14:35:06;2.05;;;1.30;;
80409;SDS011;69746;45.596;10.154;2023-12-04T14:37:33;2.50;;;1.55;;
80409;SDS011;69746;45.596;10.154;2023-12-04T14:40:01;1.98;;;1.20;;
80409;SDS011;69746;45.596;10.154;2023-12-04T14:42:30;2.20;;;1.48;;
80409;SDS011;69746;45.596;10.154;2023-12-04T14:44:56;2.08;;;1.25;;
80409;SDS011;69746;45.596;10.154;2023-12-04T14:47:22;2.17;;;1.40;;